sensor_id;sensor_type;location;lat;lon;timestamp;P1;durP1;ratioP1;P2;durP2;ratioP2
4519;SDS011;2272;49.226;8.108;2022-07-19T00:01:06;3.30;;;2.97;;
4519;SDS011;2272;49.226;8.108;2022-07-19T00:03:32;9.17;;;2.37;;
4519;SDS011;2272;49.226;8.108;2022-07-19T00:05:59;9.53;;;2.50;;
4519;SDS011;2272;49.226;8.108;2022-07-19T00:08:25;6.03;;;2.70;;
4519;SDS011;2272;49.226;8.108;2022-07-19T00:10:52;2.47;;;2.30;;
4519;SDS011;2272;49.226;8.108;2022-07-19T00:13:19;3.73;;;2.50;;
4519;SDS011;2272;49.226;8.108;2022-07-19T00:15:47;5.87;;;2.37;;
4519;SDS011;2272;49.226;8.108;2022-07-19T00:18:14;3.30;;;2.60;;
4519;SDS011;2272;49.226;8.108;2022-07-19T00:20:41;13.63;;;2.93;;
4519;SDS011;2272;49.226;8.108;2022-07-19T00:23:08;4.60;;;2.10;;
4519;SDS011;2272;49.226;8.108;2022-07-19T00:25:35;2.43;;;2.23;;
4519;SDS011;2272;49.226;8.108;2022-07-19T00:28:01;13.07;;;2.77;;
4519;SDS011;2272;49.226;8.108;2022-07-19T00:30:28;3.23;;;2.63;;
4519;SDS011;2272;49.226;8.108;2022-07-19T00:32:56;3.80;;;2.60;;
4519;SDS011;2272;49.226;8.108;2022-07-19T00:35:23;3.70;;;2.43;;
4519;SDS011;2272;49.226;8.108;2022-07-19T00:37:49;2.93;;;2.40;;
4519;SDS011;2272;49.226;8.108;2022-07-19T00:40:20;5.40;;;2.30;;
4519;SDS011;2272;49.226;8.108;2022-07-19T00:42:48;3.27;;;2.60;;
4519;SDS011;2272;49.226;8.108;2022-07-19T00:45:15;2.53;;;2.33;;
4519;SDS011;2272;49.226;8.108;2022-07-19T00:47:42;5.07;;;2.23;;
4519;SDS011;2272;49.226;8.108;2022-07-19T00:50:10;4.80;;;2.37;;
4519;SDS011;2272;49.226;8.108;2022-07-19T00:52:38;3.20;;;2.57;;
4519;SDS011;2272;49.226;8.108;2022-07-19T00:55:06;4.67;;;3.00;;
4519;SDS011;2272;49.226;8.108;2022-07-19T00:57:33;2.73;;;2.53;;
4519;SDS011;2272;49.226;8.108;2022-07-19T01:00:03;4.07;;;2.03;;
4519;SDS011;2272;49.226;8.108;2022-07-19T01:02:31;3.67;;;2.60;;
4519;SDS011;2272;49.226;8.108;2022-07-19T01:04:58;4.10;;;2.80;;
4519;SDS011;2272;49.226;8.108;2022-07-19T01:07:27;2.70;;;2.43;;
4519;SDS011;2272;49.226;8.108;2022-07-19T01:09:53;5.47;;;2.67;;
4519;SDS011;2272;49.226;8.108;2022-07-19T01:12:20;3.30;;;2.30;;
4519;SDS011;2272;49.226;8.108;2022-07-19T01:14:47;3.57;;;2.57;;
4519;SDS011;2272;49.226;8.108;2022-07-19T01:17:14;5.20;;;2.40;;
4519;SDS011;2272;49.226;8.108;2022-07-19T01:19:41;1.90;;;1.80;;
4519;SDS011;2272;49.226;8.108;2022-07-19T01:22:09;3.43;;;2.33;;
4519;SDS011;2272;49.226;8.108;2022-07-19T01:24:36;5.57;;;2.37;;
4519;SDS011;2272;49.226;8.108;2022-07-19T01:27:03;2.60;;;2.40;;
4519;SDS011;2272;49.226;8.108;2022-07-19T01:29:31;3.23;;;2.53;;
4519;SDS011;2272;49.226;8.108;2022-07-19T01:31:57;6.73;;;2.23;;
4519;SDS011;2272;49.226;8.108;2022-07-19T01:34:24;8.43;;;2.07;;
4519;SDS011;2272;49.226;8.108;2022-07-19T01:36:51;2.13;;;2.03;;
4519;SDS011;2272;49.226;8.108;2022-07-19T01:39:19;5.53;;;2.50;;
4519;SDS011;2272;49.226;8.108;2022-07-19T01:41:45;2.13;;;2.00;;
4519;SDS011;2272;49.226;8.108;2022-07-19T01:44:12;8.53;;;2.33;;
4519;SDS011;2272;49.226;8.108;2022-07-19T01:46:39;4.70;;;1.87;;
4519;SDS011;2272;49.226;8.108;2022-07-19T01:49:06;4.93;;;2.30;;
4519;SDS011;2272;49.226;8.108;2022-07-19T01:51:33;2.47;;;2.37;;
4519;SDS011;2272;49.226;8.108;2022-07-19T01:54:00;4.20;;;2.40;;
4519;SDS011;2272;49.226;8.108;2022-07-19T01:56:28;3.73;;;3.43;;
4519;SDS011;2272;49.226;8.108;2022-07-19T01:58:54;9.80;;;3.03;;
4519;SDS011;2272;49.226;8.108;2022-07-19T02:01:21;7.00;;;2.30;;
4519;SDS011;2272;49.226;8.108;2022-07-19T02:03:48;3.33;;;2.10;;
4519;SDS011;2272;49.226;8.108;2022-07-19T02:06:14;7.57;;;2.20;;
4519;SDS011;2272;49.226;8.108;2022-07-19T02:08:41;4.20;;;2.60;;
4519;SDS011;2272;49.226;8.108;2022-07-19T02:11:08;5.57;;;2.87;;
4519;SDS011;2272;49.226;8.108;2022-07-19T02:13:50;4.30;;;2.37;;
4519;SDS011;2272;49.226;8.108;2022-07-19T02:16:16;2.10;;;2.00;;
4519;SDS011;2272;49.226;8.108;2022-07-19T02:18:43;3.30;;;2.40;;
4519;SDS011;2272;49.226;8.108;2022-07-19T02:21:10;2.10;;;2.00;;
4519;SDS011;2272;49.226;8.108;2022-07-19T02:23:37;3.03;;;2.63;;
4519;SDS011;2272;49.226;8.108;2022-07-19T02:26:03;4.77;;;2.20;;
4519;SDS011;2272;49.226;8.108;2022-07-19T02:28:30;10.33;;;2.00;;
4519;SDS011;2272;49.226;8.108;2022-07-19T02:30:58;3.50;;;2.40;;
4519;SDS011;2272;49.226;8.108;2022-07-19T02:33:25;3.57;;;2.57;;
4519;SDS011;2272;49.226;8.108;2022-07-19T02:35:51;2.00;;;1.90;;
4519;SDS011;2272;49.226;8.108;2022-07-19T02:38:18;8.20;;;2.80;;
4519;SDS011;2272;49.226;8.108;2022-07-19T02:40:45;4.40;;;2.43;;
4519;SDS011;2272;49.226;8.108;2022-07-19T02:43:12;2.53;;;2.33;;
4519;SDS011;2272;49.226;8.108;2022-07-19T02:45:38;6.20;;;2.90;;
4519;SDS011;2272;49.226;8.108;2022-07-19T02:48:07;3.13;;;2.53;;
4519;SDS011;2272;49.226;8.108;2022-07-19T02:50:34;6.03;;;2.67;;
4519;SDS011;2272;49.226;8.108;2022-07-19T02:53:01;9.63;;;3.03;;
4519;SDS011;2272;49.226;8.108;2022-07-19T02:55:28;5.13;;;2.70;;
4519;SDS011;2272;49.226;8.108;2022-07-19T02:57:55;6.73;;;3.07;;
4519;SDS011;2272;49.226;8.108;2022-07-19T03:00:22;4.20;;;3.10;;
4519;SDS011;2272;49.226;8.108;2022-07-19T03:02:49;7.50;;;3.53;;
4519;SDS011;2272;49.226;8.108;2022-07-19T03:05:18;4.67;;;2.33;;
4519;SDS011;2272;49.226;8.108;2022-07-19T03:07:44;5.53;;;2.50;;
4519;SDS011;2272;49.226;8.108;2022-07-19T03:10:11;3.80;;;2.80;;
4519;SDS011;2272;49.226;8.108;2022-07-19T03:12:38;2.97;;;2.77;;
4519;SDS011;2272;49.226;8.108;2022-07-19T03:15:05;5.33;;;2.00;;
4519;SDS011;2272;49.226;8.108;2022-07-19T03:17:32;4.30;;;1.70;;
4519;SDS011;2272;49.226;8.108;2022-07-19T03:19:59;4.67;;;3.00;;
4519;SDS011;2272;49.226;8.108;2022-07-19T03:22:27;2.60;;;2.33;;
4519;SDS011;2272;49.226;8.108;2022-07-19T03:24:54;3.70;;;2.10;;
4519;SDS011;2272;49.226;8.108;2022-07-19T03:27:22;2.23;;;2.10;;
4519;SDS011;2272;49.226;8.108;2022-07-19T03:29:48;16.63;;;2.53;;
4519;SDS011;2272;49.226;8.108;2022-07-19T03:32:15;2.80;;;2.00;;
4519;SDS011;2272;49.226;8.108;2022-07-19T03:34:42;6.13;;;2.80;;
4519;SDS011;2272;49.226;8.108;2022-07-19T03:37:08;2.53;;;2.43;;
4519;SDS011;2272;49.226;8.108;2022-07-19T03:39:36;3.17;;;2.97;;
4519;SDS011;2272;49.226;8.108;2022-07-19T03:42:03;2.30;;;2.17;;
4519;SDS011;2272;49.226;8.108;2022-07-19T03:44:30;6.20;;;2.50;;
4519;SDS011;2272;49.226;8.108;2022-07-19T03:46:56;4.73;;;2.10;;
4519;SDS011;2272;49.226;8.108;2022-07-19T03:49:23;5.67;;;2.50;;
4519;SDS011;2272;49.226;8.108;2022-07-19T03:51:50;2.93;;;2.47;;
4519;SDS011;2272;49.226;8.108;2022-07-19T03:54:17;4.93;;;2.37;;
4519;SDS011;2272;49.226;8.108;2022-07-19T03:56:45;3.30;;;2.40;;
4519;SDS011;2272;49.226;8.108;2022-07-19T03:59:11;5.70;;;2.40;;
4519;SDS011;2272;49.226;8.108;2022-07-19T04:01:38;5.70;;;2.33;;
4519;SDS011;2272;49.226;8.108;2022-07-19T04:04:05;4.67;;;2.47;;
4519;SDS011;2272;49.226;8.108;2022-07-19T04:06:32;4.03;;;2.90;;
4519;SDS011;2272;49.226;8.108;2022-07-19T04:08:59;5.07;;;2.97;;
4519;SDS011;2272;49.226;8.108;2022-07-19T04:11:26;3.73;;;2.83;;
4519;SDS011;2272;49.226;8.108;2022-07-19T04:13:54;7.90;;;2.87;;
4519;SDS011;2272;49.226;8.108;2022-07-19T04:16:21;17.03;;;2.57;;
4519;SDS011;2272;49.226;8.108;2022-07-19T04:18:47;13.73;;;2.40;;
4519;SDS011;2272;49.226;8.108;2022-07-19T04:21:14;8.73;;;2.53;;
4519;SDS011;2272;49.226;8.108;2022-07-19T04:23:41;9.27;;;2.70;;
4519;SDS011;2272;49.226;8.108;2022-07-19T04:26:07;2.90;;;2.70;;
4519;SDS011;2272;49.226;8.108;2022-07-19T04:28:34;3.20;;;2.37;;
4519;SDS011;2272;49.226;8.108;2022-07-19T04:31:02;3.83;;;2.37;;
4519;SDS011;2272;49.226;8.108;2022-07-19T04:33:29;5.23;;;2.50;;
4519;SDS011;2272;49.226;8.108;2022-07-19T04:35:56;2.43;;;2.23;;
4519;SDS011;2272;49.226;8.108;2022-07-19T04:38:22;5.80;;;2.50;;
4519;SDS011;2272;49.226;8.108;2022-07-19T04:40:49;2.63;;;2.10;;
4519;SDS011;2272;49.226;8.108;2022-07-19T04:43:16;8.43;;;2.47;;
4519;SDS011;2272;49.226;8.108;2022-07-19T04:45:43;3.93;;;2.37;;
4519;SDS011;2272;49.226;8.108;2022-07-19T04:48:11;2.30;;;2.20;;
4519;SDS011;2272;49.226;8.108;2022-07-19T04:50:38;4.23;;;2.50;;
4519;SDS011;2272;49.226;8.108;2022-07-19T04:53:05;3.73;;;2.37;;
4519;SDS011;2272;49.226;8.108;2022-07-19T04:55:32;7.57;;;1.80;;
4519;SDS011;2272;49.226;8.108;2022-07-19T04:58:00;7.60;;;2.13;;
4519;SDS011;2272;49.226;8.108;2022-07-19T05:00:26;2.27;;;2.07;;
4519;SDS011;2272;49.226;8.108;2022-07-19T05:02:53;4.33;;;2.40;;
4519;SDS011;2272;49.226;8.108;2022-07-19T05:05:22;9.63;;;2.40;;
4519;SDS011;2272;49.226;8.108;2022-07-19T05:07:49;4.87;;;2.63;;
4519;SDS011;2272;49.226;8.108;2022-07-19T05:10:16;2.83;;;2.30;;
4519;SDS011;2272;49.226;8.108;2022-07-19T05:12:43;5.63;;;2.63;;
4519;SDS011;2272;49.226;8.108;2022-07-19T05:15:09;4.57;;;2.70;;
4519;SDS011;2272;49.226;8.108;2022-07-19T05:17:36;7.00;;;2.97;;
4519;SDS011;2272;49.226;8.108;2022-07-19T05:20:04;3.60;;;2.83;;
4519;SDS011;2272;49.226;8.108;2022-07-19T05:22:32;3.67;;;2.50;;
4519;SDS011;2272;49.226;8.108;2022-07-19T05:24:59;11.10;;;2.67;;
4519;SDS011;2272;49.226;8.108;2022-07-19T05:27:26;4.50;;;2.43;;
4519;SDS011;2272;49.226;8.108;2022-07-19T05:29:53;6.13;;;3.13;;
4519;SDS011;2272;49.226;8.108;2022-07-19T05:32:19;4.43;;;2.40;;
4519;SDS011;2272;49.226;8.108;2022-07-19T05:34:46;20.07;;;3.13;;
4519;SDS011;2272;49.226;8.108;2022-07-19T05:37:13;15.00;;;2.50;;
4519;SDS011;2272;49.226;8.108;2022-07-19T05:39:41;15.93;;;3.50;;
4519;SDS011;2272;49.226;8.108;2022-07-19T05:42:07;8.90;;;3.70;;
4519;SDS011;2272;49.226;8.108;2022-07-19T05:44:34;9.63;;;4.73;;
4519;SDS011;2272;49.226;8.108;2022-07-19T05:47:01;15.80;;;3.90;;
4519;SDS011;2272;49.226;8.108;2022-07-19T05:49:28;10.77;;;5.20;;
4519;SDS011;2272;49.226;8.108;2022-07-19T05:51:54;6.10;;;3.60;;
4519;SDS011;2272;49.226;8.108;2022-07-19T05:54:21;5.73;;;4.20;;
4519;SDS011;2272;49.226;8.108;2022-07-19T05:56:49;8.10;;;3.50;;
4519;SDS011;2272;49.226;8.108;2022-07-19T05:59:16;13.23;;;4.73;;
4519;SDS011;2272;49.226;8.108;2022-07-19T06:01:45;5.97;;;4.10;;
4519;SDS011;2272;49.226;8.108;2022-07-19T06:04:12;10.30;;;4.47;;
4519;SDS011;2272;49.226;8.108;2022-07-19T06:06:39;15.10;;;4.50;;
4519;SDS011;2272;49.226;8.108;2022-07-19T06:09:05;13.40;;;5.60;;
4519;SDS011;2272;49.226;8.108;2022-07-19T06:11:36;21.93;;;7.37;;
4519;SDS011;2272;49.226;8.108;2022-07-19T06:14:05;16.70;;;7.20;;
4519;SDS011;2272;49.226;8.108;2022-07-19T06:16:33;19.67;;;7.30;;
4519;SDS011;2272;49.226;8.108;2022-07-19T06:19:00;21.63;;;7.80;;
4519;SDS011;2272;49.226;8.108;2022-07-19T06:21:27;19.43;;;7.07;;
4519;SDS011;2272;49.226;8.108;2022-07-19T06:23:54;13.70;;;7.07;;
4519;SDS011;2272;49.226;8.108;2022-07-19T06:26:21;15.10;;;7.30;;
4519;SDS011;2272;49.226;8.108;2022-07-19T06:28:48;14.37;;;6.37;;
4519;SDS011;2272;49.226;8.108;2022-07-19T06:31:16;7.50;;;6.10;;
4519;SDS011;2272;49.226;8.108;2022-07-19T06:33:43;9.17;;;5.43;;
4519;SDS011;2272;49.226;8.108;2022-07-19T06:36:11;11.80;;;4.30;;
4519;SDS011;2272;49.226;8.108;2022-07-19T06:38:39;15.03;;;4.23;;
4519;SDS011;2272;49.226;8.108;2022-07-19T06:41:06;15.13;;;5.10;;
4519;SDS011;2272;49.226;8.108;2022-07-19T06:43:33;9.80;;;4.03;;
4519;SDS011;2272;49.226;8.108;2022-07-19T06:45:59;16.60;;;4.97;;
4519;SDS011;2272;49.226;8.108;2022-07-19T06:48:28;6.93;;;4.77;;
4519;SDS011;2272;49.226;8.108;2022-07-19T06:50:54;9.83;;;4.53;;
4519;SDS011;2272;49.226;8.108;2022-07-19T06:53:21;5.30;;;4.40;;
4519;SDS011;2272;49.226;8.108;2022-07-19T06:55:48;9.13;;;3.90;;
4519;SDS011;2272;49.226;8.108;2022-07-19T06:58:15;8.17;;;4.53;;
4519;SDS011;2272;49.226;8.108;2022-07-19T07:00:42;5.13;;;4.63;;
4519;SDS011;2272;49.226;8.108;2022-07-19T07:03:09;9.23;;;3.83;;
4519;SDS011;2272;49.226;8.108;2022-07-19T07:05:37;5.10;;;4.50;;
4519;SDS011;2272;49.226;8.108;2022-07-19T07:08:03;8.23;;;3.60;;
4519;SDS011;2272;49.226;8.108;2022-07-19T07:10:30;10.83;;;4.77;;
4519;SDS011;2272;49.226;8.108;2022-07-19T07:12:57;19.20;;;5.40;;
4519;SDS011;2272;49.226;8.108;2022-07-19T07:15:24;4.03;;;3.63;;
4519;SDS011;2272;49.226;8.108;2022-07-19T07:17:50;9.10;;;3.67;;
4519;SDS011;2272;49.226;8.108;2022-07-19T07:20:17;5.17;;;3.93;;
4519;SDS011;2272;49.226;8.108;2022-07-19T07:22:45;3.67;;;3.37;;
4519;SDS011;2272;49.226;8.108;2022-07-19T07:25:12;6.33;;;4.37;;
4519;SDS011;2272;49.226;8.108;2022-07-19T07:27:39;5.37;;;4.20;;
4519;SDS011;2272;49.226;8.108;2022-07-19T07:30:06;12.50;;;3.90;;
4519;SDS011;2272;49.226;8.108;2022-07-19T07:32:33;9.40;;;4.40;;
4519;SDS011;2272;49.226;8.108;2022-07-19T07:35:00;8.47;;;3.70;;
4519;SDS011;2272;49.226;8.108;2022-07-19T07:37:27;4.53;;;3.43;;
4519;SDS011;2272;49.226;8.108;2022-07-19T07:39:55;10.53;;;3.83;;
4519;SDS011;2272;49.226;8.108;2022-07-19T07:42:22;9.10;;;3.80;;
4519;SDS011;2272;49.226;8.108;2022-07-19T07:44:49;8.67;;;3.60;;
4519;SDS011;2272;49.226;8.108;2022-07-19T07:47:16;17.47;;;4.27;;
4519;SDS011;2272;49.226;8.108;2022-07-19T07:49:43;11.90;;;4.13;;
4519;SDS011;2272;49.226;8.108;2022-07-19T07:52:10;6.27;;;4.20;;
4519;SDS011;2272;49.226;8.108;2022-07-19T07:54:36;9.00;;;3.90;;
4519;SDS011;2272;49.226;8.108;2022-07-19T07:57:04;6.00;;;2.97;;
4519;SDS011;2272;49.226;8.108;2022-07-19T07:59:31;28.20;;;4.37;;
4519;SDS011;2272;49.226;8.108;2022-07-19T08:01:58;10.40;;;3.83;;
4519;SDS011;2272;49.226;8.108;2022-07-19T08:04:25;9.23;;;3.80;;
4519;SDS011;2272;49.226;8.108;2022-07-19T08:06:51;8.33;;;4.00;;
4519;SDS011;2272;49.226;8.108;2022-07-19T08:09:18;13.83;;;3.23;;
4519;SDS011;2272;49.226;8.108;2022-07-19T08:11:45;5.00;;;3.50;;
4519;SDS011;2272;49.226;8.108;2022-07-19T08:14:13;14.40;;;4.00;;
4519;SDS011;2272;49.226;8.108;2022-07-19T08:16:40;17.10;;;3.70;;
4519;SDS011;2272;49.226;8.108;2022-07-19T08:19:06;4.20;;;3.80;;
4519;SDS011;2272;49.226;8.108;2022-07-19T08:21:33;14.87;;;4.50;;
4519;SDS011;2272;49.226;8.108;2022-07-19T08:24:00;6.63;;;3.50;;
4519;SDS011;2272;49.226;8.108;2022-07-19T08:26:27;18.53;;;3.70;;
4519;SDS011;2272;49.226;8.108;2022-07-19T08:28:55;9.07;;;3.40;;
4519;SDS011;2272;49.226;8.108;2022-07-19T08:31:23;3.57;;;3.27;;
4519;SDS011;2272;49.226;8.108;2022-07-19T08:33:49;13.20;;;3.30;;
4519;SDS011;2272;49.226;8.108;2022-07-19T08:36:16;8.50;;;3.00;;
4519;SDS011;2272;49.226;8.108;2022-07-19T08:38:43;7.10;;;3.10;;
4519;SDS011;2272;49.226;8.108;2022-07-19T08:41:11;21.23;;;5.50;;
4519;SDS011;2272;49.226;8.108;2022-07-19T08:43:39;8.03;;;3.10;;
4519;SDS011;2272;49.226;8.108;2022-07-19T08:46:06;4.40;;;3.20;;
4519;SDS011;2272;49.226;8.108;2022-07-19T08:48:35;20.07;;;3.83;;
4519;SDS011;2272;49.226;8.108;2022-07-19T08:51:04;23.40;;;4.00;;
4519;SDS011;2272;49.226;8.108;2022-07-19T08:53:32;3.73;;;3.00;;
4519;SDS011;2272;49.226;8.108;2022-07-19T08:56:03;5.73;;;3.43;;
4519;SDS011;2272;49.226;8.108;2022-07-19T08:58:49;17.77;;;4.03;;
4519;SDS011;2272;49.226;8.108;2022-07-19T09:01:15;5.07;;;3.60;;
4519;SDS011;2272;49.226;8.108;2022-07-19T09:06:39;10.50;;;3.20;;
4519;SDS011;2272;49.226;8.108;2022-07-19T09:09:08;12.67;;;3.47;;
4519;SDS011;2272;49.226;8.108;2022-07-19T09:11:36;5.90;;;3.17;;
4519;SDS011;2272;49.226;8.108;2022-07-19T09:14:06;3.30;;;2.93;;
4519;SDS011;2272;49.226;8.108;2022-07-19T09:19:27;10.23;;;3.03;;
4519;SDS011;2272;49.226;8.108;2022-07-19T09:21:58;3.87;;;3.20;;
4519;SDS011;2272;49.226;8.108;2022-07-19T09:24:29;3.67;;;3.00;;
4519;SDS011;2272;49.226;8.108;2022-07-19T09:26:58;2.80;;;2.40;;
4519;SDS011;2272;49.226;8.108;2022-07-19T09:29:27;8.07;;;3.07;;
4519;SDS011;2272;49.226;8.108;2022-07-19T09:31:58;5.70;;;2.50;;
4519;SDS011;2272;49.226;8.108;2022-07-19T09:34:30;3.60;;;2.60;;
4519;SDS011;2272;49.226;8.108;2022-07-19T09:37:08;3.07;;;2.87;;
4519;SDS011;2272;49.226;8.108;2022-07-19T09:39:39;6.70;;;2.63;;
4519;SDS011;2272;49.226;8.108;2022-07-19T09:42:10;4.80;;;3.07;;
4519;SDS011;2272;49.226;8.108;2022-07-19T09:44:37;12.77;;;3.37;;
4519;SDS011;2272;49.226;8.108;2022-07-19T09:47:03;2.87;;;2.53;;
4519;SDS011;2272;49.226;8.108;2022-07-19T09:49:31;9.73;;;2.30;;
4519;SDS011;2272;49.226;8.108;2022-07-19T09:51:58;7.13;;;2.47;;
4519;SDS011;2272;49.226;8.108;2022-07-19T09:54:26;12.83;;;2.47;;
4519;SDS011;2272;49.226;8.108;2022-07-19T09:56:54;10.33;;;2.70;;
4519;SDS011;2272;49.226;8.108;2022-07-19T09:59:23;3.03;;;2.60;;
4519;SDS011;2272;49.226;8.108;2022-07-19T10:01:52;3.90;;;2.00;;
4519;SDS011;2272;49.226;8.108;2022-07-19T10:04:21;10.20;;;2.50;;
4519;SDS011;2272;49.226;8.108;2022-07-19T10:06:50;7.90;;;2.60;;
4519;SDS011;2272;49.226;8.108;2022-07-19T10:09:18;4.50;;;3.20;;
4519;SDS011;2272;49.226;8.108;2022-07-19T10:11:46;3.80;;;1.93;;
4519;SDS011;2272;49.226;8.108;2022-07-19T10:14:13;2.80;;;2.60;;
4519;SDS011;2272;49.226;8.108;2022-07-19T10:16:54;4.50;;;2.07;;
4519;SDS011;2272;49.226;8.108;2022-07-19T10:19:30;2.70;;;1.97;;
4519;SDS011;2272;49.226;8.108;2022-07-19T10:22:04;5.40;;;2.40;;
4519;SDS011;2272;49.226;8.108;2022-07-19T10:24:45;3.23;;;2.10;;
4519;SDS011;2272;49.226;8.108;2022-07-19T10:27:14;8.33;;;3.10;;
4519;SDS011;2272;49.226;8.108;2022-07-19T10:29:42;11.13;;;2.13;;
4519;SDS011;2272;49.226;8.108;2022-07-19T10:32:11;6.33;;;2.40;;
4519;SDS011;2272;49.226;8.108;2022-07-19T10:34:39;2.33;;;2.10;;
4519;SDS011;2272;49.226;8.108;2022-07-19T10:37:07;3.27;;;2.50;;
4519;SDS011;2272;49.226;8.108;2022-07-19T10:39:35;2.73;;;2.53;;
4519;SDS011;2272;49.226;8.108;2022-07-19T10:42:03;1.83;;;1.73;;
4519;SDS011;2272;49.226;8.108;2022-07-19T10:59:35;9.00;;;1.90;;
4519;SDS011;2272;49.226;8.108;2022-07-19T11:02:06;2.30;;;1.77;;
4519;SDS011;2272;49.226;8.108;2022-07-19T11:04:46;4.50;;;1.90;;
4519;SDS011;2272;49.226;8.108;2022-07-19T11:07:18;7.83;;;2.70;;
4519;SDS011;2272;49.226;8.108;2022-07-19T11:09:49;1.80;;;1.70;;
4519;SDS011;2272;49.226;8.108;2022-07-19T11:12:25;8.17;;;1.97;;
4519;SDS011;2272;49.226;8.108;2022-07-19T11:14:54;3.73;;;1.60;;
4519;SDS011;2272;49.226;8.108;2022-07-19T11:17:21;2.17;;;1.90;;
4519;SDS011;2272;49.226;8.108;2022-07-19T11:19:58;2.97;;;1.60;;
4519;SDS011;2272;49.226;8.108;2022-07-19T11:22:26;1.73;;;1.63;;
4519;SDS011;2272;49.226;8.108;2022-07-19T11:25:00;3.77;;;1.70;;
4519;SDS011;2272;49.226;8.108;2022-07-19T11:27:27;4.67;;;1.67;;
4519;SDS011;2272;49.226;8.108;2022-07-19T11:29:55;1.63;;;1.53;;
4519;SDS011;2272;49.226;8.108;2022-07-19T11:32:23;3.57;;;1.67;;
4519;SDS011;2272;49.226;8.108;2022-07-19T11:34:53;7.83;;;1.80;;
4519;SDS011;2272;49.226;8.108;2022-07-19T11:37:24;2.27;;;1.77;;
4519;SDS011;2272;49.226;8.108;2022-07-19T11:39:52;2.03;;;1.80;;
4519;SDS011;2272;49.226;8.108;2022-07-19T11:42:36;6.83;;;2.60;;
4519;SDS011;2272;49.226;8.108;2022-07-19T11:45:08;3.13;;;1.80;;
4519;SDS011;2272;49.226;8.108;2022-07-19T11:47:36;5.70;;;2.33;;
4519;SDS011;2272;49.226;8.108;2022-07-19T11:50:04;3.23;;;2.70;;
4519;SDS011;2272;49.226;8.108;2022-07-19T11:52:40;1.90;;;1.70;;
4519;SDS011;2272;49.226;8.108;2022-07-19T11:55:15;2.80;;;1.73;;
4519;SDS011;2272;49.226;8.108;2022-07-19T11:57:44;2.13;;;1.40;;
4519;SDS011;2272;49.226;8.108;2022-07-19T12:00:11;1.50;;;1.50;;
4519;SDS011;2272;49.226;8.108;2022-07-19T12:05:34;5.70;;;1.67;;
4519;SDS011;2272;49.226;8.108;2022-07-19T12:08:03;5.43;;;2.37;;
4519;SDS011;2272;49.226;8.108;2022-07-19T12:10:31;4.30;;;1.67;;
4519;SDS011;2272;49.226;8.108;2022-07-19T12:13:04;3.23;;;1.80;;
4519;SDS011;2272;49.226;8.108;2022-07-19T12:15:45;4.00;;;1.87;;
4519;SDS011;2272;49.226;8.108;2022-07-19T12:18:17;9.83;;;2.23;;
4519;SDS011;2272;49.226;8.108;2022-07-19T12:20:45;2.00;;;1.90;;
4519;SDS011;2272;49.226;8.108;2022-07-19T12:23:27;2.20;;;2.00;;
4519;SDS011;2272;49.226;8.108;2022-07-19T12:25:53;4.03;;;2.43;;
4519;SDS011;2272;49.226;8.108;2022-07-19T12:28:30;4.07;;;2.07;;
4519;SDS011;2272;49.226;8.108;2022-07-19T12:31:00;12.63;;;1.93;;
4519;SDS011;2272;49.226;8.108;2022-07-19T12:33:27;2.13;;;1.90;;
4519;SDS011;2272;49.226;8.108;2022-07-19T12:35:54;13.33;;;2.13;;
4519;SDS011;2272;49.226;8.108;2022-07-19T12:38:26;2.70;;;2.03;;
4519;SDS011;2272;49.226;8.108;2022-07-19T12:41:03;10.13;;;2.13;;
4519;SDS011;2272;49.226;8.108;2022-07-19T12:43:33;1.93;;;1.67;;
4519;SDS011;2272;49.226;8.108;2022-07-19T12:46:00;4.00;;;1.73;;
4519;SDS011;2272;49.226;8.108;2022-07-19T12:48:27;1.70;;;1.70;;
4519;SDS011;2272;49.226;8.108;2022-07-19T12:50:54;2.23;;;2.00;;
4519;SDS011;2272;49.226;8.108;2022-07-19T12:53:22;2.60;;;1.53;;
4519;SDS011;2272;49.226;8.108;2022-07-19T12:55:49;4.73;;;2.53;;
4519;SDS011;2272;49.226;8.108;2022-07-19T12:58:17;1.80;;;1.70;;
4519;SDS011;2272;49.226;8.108;2022-07-19T13:01:05;2.97;;;2.23;;
4519;SDS011;2272;49.226;8.108;2022-07-19T13:03:33;2.60;;;2.03;;
4519;SDS011;2272;49.226;8.108;2022-07-19T13:06:00;4.87;;;2.00;;
4519;SDS011;2272;49.226;8.108;2022-07-19T13:08:27;2.00;;;1.90;;
4519;SDS011;2272;49.226;8.108;2022-07-19T13:10:53;4.47;;;1.67;;
4519;SDS011;2272;49.226;8.108;2022-07-19T13:13:20;2.20;;;2.00;;
4519;SDS011;2272;49.226;8.108;2022-07-19T13:15:47;3.17;;;2.40;;
4519;SDS011;2272;49.226;8.108;2022-07-19T13:18:15;2.70;;;1.90;;
4519;SDS011;2272;49.226;8.108;2022-07-19T13:20:42;2.97;;;1.73;;
4519;SDS011;2272;49.226;8.108;2022-07-19T13:23:09;8.00;;;2.30;;
4519;SDS011;2272;49.226;8.108;2022-07-19T13:25:35;2.13;;;1.90;;
4519;SDS011;2272;49.226;8.108;2022-07-19T13:28:02;2.03;;;1.90;;
4519;SDS011;2272;49.226;8.108;2022-07-19T13:30:29;3.87;;;2.40;;
4519;SDS011;2272;49.226;8.108;2022-07-19T13:32:56;2.20;;;1.87;;
4519;SDS011;2272;49.226;8.108;2022-07-19T13:35:24;3.07;;;1.77;;
4519;SDS011;2272;49.226;8.108;2022-07-19T13:37:51;1.40;;;1.40;;
4519;SDS011;2272;49.226;8.108;2022-07-19T13:40:18;5.83;;;2.13;;
4519;SDS011;2272;49.226;8.108;2022-07-19T13:42:45;4.50;;;2.20;;
4519;SDS011;2272;49.226;8.108;2022-07-19T13:45:11;8.03;;;2.50;;
4519;SDS011;2272;49.226;8.108;2022-07-19T13:47:38;2.03;;;1.93;;
4519;SDS011;2272;49.226;8.108;2022-07-19T13:50:05;5.73;;;2.70;;
4519;SDS011;2272;49.226;8.108;2022-07-19T13:52:34;6.63;;;2.00;;
4519;SDS011;2272;49.226;8.108;2022-07-19T13:55:01;4.00;;;1.80;;
4519;SDS011;2272;49.226;8.108;2022-07-19T13:57:28;12.23;;;2.33;;
4519;SDS011;2272;49.226;8.108;2022-07-19T13:59:55;9.03;;;1.93;;
4519;SDS011;2272;49.226;8.108;2022-07-19T14:02:22;6.90;;;2.23;;
4519;SDS011;2272;49.226;8.108;2022-07-19T14:04:48;12.20;;;2.30;;
4519;SDS011;2272;49.226;8.108;2022-07-19T14:07:16;3.73;;;2.03;;
4519;SDS011;2272;49.226;8.108;2022-07-19T14:09:44;2.23;;;2.03;;
4519;SDS011;2272;49.226;8.108;2022-07-19T14:12:10;2.50;;;2.30;;
4519;SDS011;2272;49.226;8.108;2022-07-19T14:14:37;9.50;;;1.83;;
4519;SDS011;2272;49.226;8.108;2022-07-19T14:17:05;6.97;;;2.63;;
4519;SDS011;2272;49.226;8.108;2022-07-19T14:19:31;1.70;;;1.60;;
4519;SDS011;2272;49.226;8.108;2022-07-19T14:22:00;8.53;;;1.77;;
4519;SDS011;2272;49.226;8.108;2022-07-19T14:24:27;3.10;;;2.13;;
4519;SDS011;2272;49.226;8.108;2022-07-19T14:26:55;5.10;;;2.33;;
4519;SDS011;2272;49.226;8.108;2022-07-19T14:29:21;3.27;;;1.67;;
4519;SDS011;2272;49.226;8.108;2022-07-19T14:31:48;5.17;;;2.53;;
4519;SDS011;2272;49.226;8.108;2022-07-19T14:34:15;9.33;;;2.30;;
4519;SDS011;2272;49.226;8.108;2022-07-19T14:36:42;5.60;;;2.33;;
4519;SDS011;2272;49.226;8.108;2022-07-19T14:39:09;5.43;;;2.50;;
4519;SDS011;2272;49.226;8.108;2022-07-19T14:41:36;3.87;;;2.70;;
4519;SDS011;2272;49.226;8.108;2022-07-19T14:44:04;3.60;;;2.40;;
4519;SDS011;2272;49.226;8.108;2022-07-19T14:46:31;4.90;;;2.50;;
4519;SDS011;2272;49.226;8.108;2022-07-19T14:48:58;2.40;;;2.20;;
4519;SDS011;2272;49.226;8.108;2022-07-19T14:51:24;4.70;;;2.30;;
4519;SDS011;2272;49.226;8.108;2022-07-19T14:53:51;8.93;;;3.13;;
4519;SDS011;2272;49.226;8.108;2022-07-19T14:56:18;3.00;;;2.00;;
4519;SDS011;2272;49.226;8.108;2022-07-19T14:58:45;5.50;;;2.17;;
4519;SDS011;2272;49.226;8.108;2022-07-19T15:01:13;6.03;;;2.43;;
4519;SDS011;2272;49.226;8.108;2022-07-19T15:03:40;5.87;;;2.90;;
4519;SDS011;2272;49.226;8.108;2022-07-19T15:06:06;2.73;;;2.27;;
4519;SDS011;2272;49.226;8.108;2022-07-19T15:08:33;8.07;;;3.23;;
4519;SDS011;2272;49.226;8.108;2022-07-19T15:11:00;10.13;;;2.43;;
4519;SDS011;2272;49.226;8.108;2022-07-19T15:13:26;5.77;;;2.53;;
4519;SDS011;2272;49.226;8.108;2022-07-19T15:15:53;2.80;;;2.60;;
4519;SDS011;2272;49.226;8.108;2022-07-19T15:18:21;8.47;;;2.50;;
4519;SDS011;2272;49.226;8.108;2022-07-19T15:20:48;4.50;;;2.50;;
4519;SDS011;2272;49.226;8.108;2022-07-19T15:23:15;16.90;;;2.60;;
4519;SDS011;2272;49.226;8.108;2022-07-19T15:25:41;6.70;;;2.80;;
4519;SDS011;2272;49.226;8.108;2022-07-19T15:28:08;4.23;;;2.50;;
4519;SDS011;2272;49.226;8.108;2022-07-19T15:30:35;3.80;;;2.50;;
4519;SDS011;2272;49.226;8.108;2022-07-19T15:33:02;3.17;;;2.87;;
4519;SDS011;2272;49.226;8.108;2022-07-19T15:35:30;7.93;;;2.40;;
4519;SDS011;2272;49.226;8.108;2022-07-19T15:37:57;7.03;;;2.80;;
4519;SDS011;2272;49.226;8.108;2022-07-19T15:40:24;5.23;;;2.60;;